createdAt,value
2017-09-17T00:00:36.352Z,2.13
2017-09-17T00:03:03.988Z,1.80
2017-09-17T00:05:31.563Z,1.87
2017-09-17T00:07:59.914Z,2.10
2017-09-17T00:10:27.514Z,2.00
2017-09-17T00:12:55.100Z,2.17
2017-09-17T00:15:22.720Z,1.60
2017-09-17T00:17:51.088Z,1.63
2017-09-17T00:20:18.664Z,2.73
2017-09-17T00:22:47.043Z,1.50
2017-09-17T00:25:15.368Z,1.67
2017-09-17T00:27:43.032Z,1.93
2017-09-17T00:30:10.710Z,1.43
2017-09-17T00:32:38.284Z,2.10
2017-09-17T00:35:06.683Z,1.53
2017-09-17T00:37:35.050Z,1.60
2017-09-17T00:40:02.754Z,1.87
2017-09-17T00:42:30.374Z,1.77
2017-09-17T00:44:59.134Z,1.47
2017-09-17T00:47:26.738Z,1.60
2017-09-17T00:49:55.494Z,1.80
2017-09-17T00:52:23.862Z,1.13
2017-09-17T00:54:51.420Z,1.50
2017-09-17T00:57:19.034Z,1.93
2017-09-17T00:59:46.612Z,1.83
2017-09-17T01:02:14.218Z,2.47
2017-09-17T01:04:41.956Z,1.77
2017-09-17T01:07:09.538Z,1.30
2017-09-17T01:09:37.160Z,2.17
2017-09-17T01:12:04.766Z,1.20
2017-09-17T01:14:32.408Z,1.60
2017-09-17T01:17:00.022Z,1.50
2017-09-17T01:19:27.641Z,1.60
2017-09-17T01:21:55.940Z,1.50
2017-09-17T01:24:25.059Z,1.27
2017-09-17T01:26:52.776Z,1.53
2017-09-17T01:29:21.868Z,1.10
2017-09-17T01:31:49.633Z,1.40
2017-09-17T01:34:18.076Z,1.67
2017-09-17T01:36:45.678Z,1.80
2017-09-17T01:39:13.272Z,1.83
2017-09-17T01:41:40.876Z,1.90
2017-09-17T01:44:08.464Z,1.47
2017-09-17T01:46:36.868Z,1.50
2017-09-17T01:49:04.464Z,1.43
2017-09-17T01:51:32.117Z,1.83
2017-09-17T01:53:59.696Z,1.47
2017-09-17T01:56:27.265Z,1.63
2017-09-17T01:58:54.884Z,1.83
2017-09-17T02:01:22.540Z,1.47
2017-09-17T02:03:50.358Z,1.80
2017-09-17T02:06:17.968Z,1.47
2017-09-17T02:08:45.560Z,2.10
2017-09-17T02:11:13.168Z,1.40
2017-09-17T02:13:41.521Z,2.13
2017-09-17T02:16:09.266Z,1.57
2017-09-17T02:18:36.912Z,1.87
2017-09-17T02:21:04.493Z,1.87
2017-09-17T02:23:32.096Z,2.07
2017-09-17T02:26:00.450Z,1.90
2017-09-17T02:28:28.137Z,1.37
2017-09-17T02:30:56.490Z,1.67
2017-09-17T02:33:24.072Z,1.30
2017-09-17T02:35:52.474Z,1.43
2017-09-17T02:38:20.056Z,2.00
2017-09-17T02:40:47.673Z,1.73
2017-09-17T02:43:16.023Z,1.87
2017-09-17T02:45:43.618Z,1.80
2017-09-17T02:48:11.996Z,1.13
2017-09-17T02:50:40.457Z,1.50
2017-09-17T02:53:08.830Z,1.73
2017-09-17T02:55:36.424Z,2.10
2017-09-17T02:58:04.006Z,1.87
2017-09-17T03:00:31.628Z,2.10
2017-09-17T03:02:59.986Z,1.90
2017-09-17T03:05:27.628Z,1.57
2017-09-17T03:07:55.209Z,1.30
2017-09-17T03:10:22.794Z,1.80
2017-09-17T03:12:51.186Z,1.53
2017-09-17T03:15:18.770Z,1.67
2017-09-17T03:17:46.358Z,1.30
2017-09-17T03:20:14.086Z,1.70
2017-09-17T03:22:41.686Z,1.50
2017-09-17T03:25:09.274Z,1.93
2017-09-17T03:27:37.683Z,1.90
2017-09-17T03:30:05.373Z,1.07
2017-09-17T03:32:32.946Z,1.30
2017-09-17T03:35:00.552Z,1.90
2017-09-17T03:37:28.159Z,1.30
2017-09-17T03:39:55.796Z,1.47
2017-09-17T03:42:24.309Z,2.08
2017-09-17T03:44:51.900Z,1.53
2017-09-17T03:47:20.288Z,1.70
2017-09-17T03:49:48.667Z,1.40
2017-09-17T03:52:16.236Z,1.70
2017-09-17T03:54:43.886Z,1.80
2017-09-17T03:57:12.230Z,1.57
2017-09-17T03:59:40.092Z,1.47
2017-09-17T04:02:07.690Z,2.20
2017-09-17T04:04:36.172Z,1.67
2017-09-17T04:07:04.578Z,1.87
2017-09-17T04:09:32.152Z,1.80
2017-09-17T04:11:59.716Z,1.70
2017-09-17T04:14:27.361Z,1.40
2017-09-17T04:16:54.992Z,1.67
2017-09-17T04:19:23.378Z,1.83
2017-09-17T04:21:50.942Z,2.00
2017-09-17T04:24:18.630Z,1.90
2017-09-17T04:26:46.226Z,1.90
2017-09-17T04:29:13.859Z,2.23
2017-09-17T04:31:41.486Z,2.10
2017-09-17T04:34:09.092Z,1.93
2017-09-17T04:36:36.732Z,1.37
2017-09-17T04:39:04.385Z,1.87
2017-09-17T04:41:32.020Z,1.90
2017-09-17T04:44:00.438Z,1.60
2017-09-17T04:46:28.019Z,1.93
2017-09-17T04:48:55.644Z,1.30
2017-09-17T04:51:23.270Z,1.63
2017-09-17T04:53:51.624Z,2.17
2017-09-17T04:56:19.326Z,1.73
2017-09-17T04:58:47.213Z,1.83
2017-09-17T05:01:14.808Z,1.50
2017-09-17T05:03:42.424Z,1.53
2017-09-17T05:06:10.021Z,1.93
2017-09-17T05:08:37.614Z,1.93
2017-09-17T05:11:06.022Z,1.60
2017-09-17T05:13:33.627Z,1.70
2017-09-17T05:16:01.233Z,1.67
2017-09-17T05:18:29.613Z,2.00
2017-09-17T05:20:58.037Z,1.70
2017-09-17T05:23:25.714Z,1.43
2017-09-17T05:25:53.318Z,1.73
2017-09-17T05:28:20.906Z,1.33
2017-09-17T05:30:48.561Z,1.97
2017-09-17T05:33:16.147Z,1.40
2017-09-17T05:35:43.740Z,1.40
2017-09-17T05:38:12.186Z,1.00
2017-09-17T05:40:39.798Z,1.57
2017-09-17T05:43:07.402Z,1.37
2017-09-17T05:45:35.050Z,1.37
2017-09-17T05:48:02.640Z,1.47
2017-09-17T05:50:30.382Z,1.00
2017-09-17T05:52:58.004Z,2.30
2017-09-17T05:55:25.624Z,1.10
2017-09-17T05:57:54.002Z,1.10
2017-09-17T06:00:21.629Z,1.13
2017-09-17T06:02:49.308Z,0.80
2017-09-17T06:05:17.054Z,1.17
2017-09-17T06:07:44.680Z,1.00
2017-09-17T06:10:13.312Z,1.20
2017-09-17T06:12:40.902Z,1.10
2017-09-17T06:15:08.660Z,1.30
2017-09-17T06:17:36.261Z,1.40
2017-09-17T06:20:03.871Z,1.80
2017-09-17T06:22:31.466Z,1.30
2017-09-17T06:24:59.854Z,1.13
2017-09-17T06:27:28.223Z,1.27
2017-09-17T06:29:56.730Z,1.13
2017-09-17T06:32:24.351Z,1.27
2017-09-17T06:34:52.010Z,1.17
2017-09-17T06:37:19.720Z,0.87
2017-09-17T06:39:47.347Z,1.17
2017-09-17T06:42:15.797Z,2.10
2017-09-17T06:44:43.408Z,1.00
2017-09-17T06:47:11.104Z,1.50
2017-09-17T06:49:38.736Z,1.40
2017-09-17T06:52:06.316Z,1.43
2017-09-17T06:54:33.941Z,2.07
2017-09-17T06:57:02.324Z,1.33
2017-09-17T06:59:30.670Z,1.57
2017-09-17T07:01:59.086Z,2.53
2017-09-17T07:04:27.450Z,1.30
2017-09-17T07:06:55.170Z,1.90
2017-09-17T07:09:22.886Z,1.17
2017-09-17T07:11:51.256Z,1.53
2017-09-17T07:14:19.671Z,1.30
2017-09-17T07:16:47.438Z,1.13
2017-09-17T07:19:15.022Z,1.20
2017-09-17T07:21:42.686Z,1.30
2017-09-17T07:24:10.264Z,1.30
2017-09-17T07:26:37.835Z,1.10
2017-09-17T07:29:05.472Z,1.43
2017-09-17T07:31:33.152Z,1.00
2017-09-17T07:34:01.584Z,1.30
2017-09-17T07:36:29.170Z,1.10
2017-09-17T07:38:56.743Z,0.73
2017-09-17T07:41:24.374Z,1.27
2017-09-17T07:43:52.000Z,0.97
2017-09-17T07:46:19.590Z,1.00
2017-09-17T07:48:47.352Z,1.17
2017-09-17T07:51:15.080Z,1.10
2017-09-17T07:53:43.436Z,0.87
2017-09-17T07:56:11.083Z,0.97
2017-09-17T07:58:38.838Z,1.40
2017-09-17T08:01:06.418Z,1.13
2017-09-17T08:03:34.046Z,0.80
2017-09-17T08:06:01.636Z,1.00
2017-09-17T08:08:29.292Z,1.00
2017-09-17T08:10:56.891Z,1.23
2017-09-17T08:13:25.294Z,0.87
2017-09-17T08:15:52.965Z,0.83
2017-09-17T08:18:20.580Z,0.93
2017-09-17T08:20:48.977Z,1.40
2017-09-17T08:23:17.511Z,1.03
2017-09-17T08:25:45.152Z,0.97
2017-09-17T08:28:12.735Z,1.90
2017-09-17T08:30:40.364Z,0.80
2017-09-17T08:33:07.988Z,1.10
2017-09-17T08:35:36.330Z,1.00
2017-09-17T08:38:03.988Z,1.40
2017-09-17T08:40:31.620Z,0.73
2017-09-17T08:42:59.510Z,1.33
2017-09-17T08:45:27.130Z,1.77
2017-09-17T08:47:55.516Z,0.70
2017-09-17T08:50:23.321Z,1.50
2017-09-17T08:52:50.952Z,1.40
2017-09-17T08:55:18.622Z,0.90
2017-09-17T08:57:47.216Z,1.60
2017-09-17T09:00:14.830Z,0.97
2017-09-17T09:02:43.236Z,0.87
2017-09-17T09:05:10.867Z,1.00
2017-09-17T09:07:39.266Z,1.47
2017-09-17T09:10:06.850Z,0.70
2017-09-17T09:12:34.533Z,1.10
2017-09-17T09:15:02.182Z,1.37
2017-09-17T09:17:29.824Z,1.33
2017-09-17T09:19:57.471Z,0.97
2017-09-17T09:22:25.109Z,1.40
2017-09-17T09:24:53.515Z,0.80
2017-09-17T09:27:21.132Z,0.90
2017-09-17T09:29:48.734Z,1.90
2017-09-17T09:32:16.361Z,0.97
2017-09-17T09:34:43.946Z,0.80
2017-09-17T09:37:12.334Z,1.47
2017-09-17T09:39:40.006Z,0.80
2017-09-17T09:42:07.650Z,0.83
2017-09-17T09:44:36.052Z,1.10
2017-09-17T09:47:03.648Z,1.00
2017-09-17T09:49:31.284Z,1.40
2017-09-17T09:51:58.941Z,1.20
2017-09-17T09:54:26.592Z,1.07
2017-09-17T09:56:54.218Z,1.20
2017-09-17T09:59:21.816Z,1.83
2017-09-17T10:01:49.419Z,1.50
2017-09-17T10:04:17.118Z,0.80
2017-09-17T10:06:45.502Z,1.20
2017-09-17T10:09:13.880Z,0.90
2017-09-17T10:11:42.316Z,1.33
2017-09-17T10:14:11.486Z,1.40
2017-09-17T10:16:39.112Z,0.93
2017-09-17T10:19:07.478Z,0.70
2017-09-17T10:21:35.142Z,0.70
2017-09-17T10:24:03.532Z,1.10
2017-09-17T10:26:31.922Z,0.97
2017-09-17T10:28:59.578Z,0.80
2017-09-17T10:31:29.191Z,0.80
2017-09-17T10:33:56.873Z,0.90
2017-09-17T10:36:24.524Z,0.93
2017-09-17T10:38:52.122Z,1.00
2017-09-17T10:41:19.794Z,0.63
2017-09-17T10:43:47.446Z,1.20
2017-09-17T10:46:15.034Z,1.50
2017-09-17T10:48:42.665Z,1.00
2017-09-17T10:51:10.268Z,1.10
2017-09-17T10:53:38.617Z,0.90
2017-09-17T10:56:06.586Z,0.80
2017-09-17T10:58:34.242Z,0.80
2017-09-17T11:01:01.860Z,1.20
2017-09-17T11:03:29.616Z,1.03
2017-09-17T11:05:57.456Z,0.73
2017-09-17T11:08:25.072Z,0.70
2017-09-17T11:10:52.790Z,0.83
2017-09-17T11:13:20.422Z,1.40
2017-09-17T11:15:48.228Z,1.47
2017-09-17T11:18:16.602Z,1.07
2017-09-17T11:20:44.214Z,1.30
2017-09-17T11:23:11.881Z,1.27
2017-09-17T11:25:39.511Z,1.40
2017-09-17T11:28:07.978Z,1.37
2017-09-17T11:30:35.679Z,0.90
2017-09-17T11:33:03.292Z,1.30
2017-09-17T11:35:31.685Z,0.83
2017-09-17T11:37:59.286Z,0.63
2017-09-17T11:40:26.940Z,1.50
2017-09-17T11:42:54.656Z,1.00
2017-09-17T11:45:23.056Z,0.63
2017-09-17T11:47:50.692Z,1.27
2017-09-17T11:50:19.111Z,0.80
2017-09-17T11:52:46.828Z,0.80
2017-09-17T11:55:15.228Z,1.37
2017-09-17T11:57:42.838Z,1.30
2017-09-17T12:00:10.498Z,0.70
2017-09-17T12:02:38.547Z,0.70
2017-09-17T12:05:06.204Z,1.00
2017-09-17T12:07:33.813Z,0.67
2017-09-17T12:10:01.450Z,0.97
2017-09-17T12:12:29.430Z,0.90
2017-09-17T12:14:57.072Z,1.00
2017-09-17T12:17:24.643Z,0.80
2017-09-17T12:19:52.318Z,0.60
2017-09-17T12:22:20.178Z,0.70
2017-09-17T12:24:47.842Z,1.40
2017-09-17T12:27:16.938Z,1.07
2017-09-17T12:29:44.570Z,1.00
2017-09-17T12:32:12.173Z,1.67
2017-09-17T12:34:40.558Z,1.60
2017-09-17T12:37:08.980Z,1.53
2017-09-17T12:39:36.620Z,1.20
2017-09-17T12:42:04.258Z,1.50
2017-09-17T12:44:32.693Z,1.30
2017-09-17T12:47:00.352Z,1.17
2017-09-17T12:49:27.962Z,1.40
2017-09-17T12:51:56.096Z,1.13
2017-09-17T12:54:23.722Z,1.00
2017-09-17T12:56:51.328Z,1.33
2017-09-17T12:59:18.975Z,1.40
2017-09-17T13:01:46.582Z,1.43
2017-09-17T13:04:14.175Z,1.03
2017-09-17T13:06:41.814Z,1.87
2017-09-17T13:09:09.422Z,0.97
2017-09-17T13:11:37.089Z,1.40
2017-09-17T13:14:04.684Z,1.20
2017-09-17T13:16:32.438Z,1.10
2017-09-17T13:19:00.111Z,1.00
2017-09-17T13:21:27.852Z,1.00
2017-09-17T13:23:55.628Z,1.20
2017-09-17T13:26:24.035Z,0.90
2017-09-17T13:28:51.685Z,1.40
2017-09-17T13:31:20.087Z,1.00
2017-09-17T13:33:47.692Z,1.10
2017-09-17T13:36:15.324Z,1.33
2017-09-17T13:38:42.911Z,0.80
2017-09-17T13:41:10.487Z,1.07
2017-09-17T13:43:38.126Z,0.80
2017-09-17T13:46:05.716Z,1.17
2017-09-17T13:48:33.286Z,0.80
2017-09-17T13:51:01.694Z,0.70
2017-09-17T13:53:29.308Z,0.90
2017-09-17T13:55:56.931Z,0.90
2017-09-17T13:58:24.540Z,1.07
2017-09-17T14:00:52.290Z,0.80
2017-09-17T14:03:35.628Z,1.00
2017-09-17T14:09:11.678Z,1.03
2017-09-17T14:11:39.320Z,1.10
2017-09-17T14:14:06.934Z,1.03
2017-09-17T14:16:34.744Z,0.93
2017-09-17T14:19:02.356Z,0.60
2017-09-17T14:21:30.078Z,0.80
2017-09-17T14:23:57.680Z,0.83
2017-09-17T14:26:25.329Z,0.77
2017-09-17T14:28:52.922Z,0.60
2017-09-17T14:31:20.540Z,1.00
2017-09-17T14:33:48.194Z,0.77
2017-09-17T14:36:15.834Z,0.80
2017-09-17T14:38:43.563Z,0.60
2017-09-17T14:41:11.948Z,0.60
2017-09-17T14:43:40.358Z,0.87
2017-09-17T14:46:07.957Z,0.63
2017-09-17T14:48:35.578Z,0.60
2017-09-17T14:51:03.200Z,0.80
2017-09-17T14:53:30.788Z,0.67
2017-09-17T14:55:58.444Z,1.10
2017-09-17T14:58:26.044Z,0.73
2017-09-17T15:00:53.661Z,0.50
2017-09-17T15:03:21.327Z,0.67
2017-09-17T15:05:48.918Z,0.50
2017-09-17T15:08:16.518Z,0.70
2017-09-17T15:10:44.310Z,0.60
2017-09-17T15:13:11.905Z,0.67
2017-09-17T15:15:39.522Z,0.80
2017-09-17T15:18:07.323Z,0.80
2017-09-17T15:20:34.932Z,1.10
2017-09-17T15:23:03.310Z,0.90
2017-09-17T15:25:31.724Z,0.83
2017-09-17T15:27:59.310Z,0.53
2017-09-17T15:30:26.975Z,0.60
2017-09-17T15:32:54.612Z,1.27
2017-09-17T15:35:22.210Z,0.57
2017-09-17T15:37:49.870Z,0.50
2017-09-17T15:40:17.468Z,0.57
2017-09-17T15:42:45.080Z,1.30
2017-09-17T15:45:12.735Z,0.60
2017-09-17T15:47:40.344Z,0.50
2017-09-17T15:50:08.690Z,0.70
2017-09-17T15:52:36.316Z,0.60
2017-09-17T15:55:03.924Z,0.60
2017-09-17T15:57:31.580Z,0.50
2017-09-17T15:59:59.168Z,0.50
2017-09-17T16:02:27.802Z,0.60
2017-09-17T16:04:55.422Z,0.53
2017-09-17T16:07:23.782Z,0.60
2017-09-17T16:09:52.165Z,0.80
2017-09-17T16:12:20.570Z,0.50
2017-09-17T16:14:48.205Z,0.77
2017-09-17T16:17:15.828Z,0.50
2017-09-17T16:19:43.430Z,0.47
2017-09-17T16:22:11.042Z,0.50
2017-09-17T16:24:38.693Z,0.43
2017-09-17T16:27:06.310Z,0.50
2017-09-17T16:29:33.910Z,0.50
2017-09-17T16:32:01.571Z,0.57
2017-09-17T16:34:29.163Z,0.43
2017-09-17T16:36:56.754Z,0.50
2017-09-17T16:39:24.626Z,1.60
2017-09-17T16:41:52.992Z,0.60
2017-09-17T16:44:20.632Z,1.37
2017-09-17T16:46:48.394Z,0.43
2017-09-17T16:49:16.465Z,0.67
2017-09-17T16:51:44.860Z,2.17
2017-09-17T16:54:13.686Z,2.53
2017-09-17T16:56:41.310Z,3.17
2017-09-17T16:59:10.669Z,2.33
2017-09-17T17:01:38.510Z,2.00
2017-09-17T17:04:07.152Z,3.20
2017-09-17T17:06:34.958Z,1.97
2017-09-17T17:09:04.184Z,1.67
2017-09-17T17:11:31.802Z,1.93
2017-09-17T17:14:00.250Z,2.03
2017-09-17T17:16:27.955Z,1.67
2017-09-17T17:18:55.702Z,1.20
2017-09-17T17:21:23.374Z,1.70
2017-09-17T17:23:51.736Z,1.80
2017-09-17T17:26:19.336Z,1.47
2017-09-17T17:28:46.980Z,1.20
2017-09-17T17:31:14.610Z,1.40
2017-09-17T17:33:43.720Z,1.60
2017-09-17T17:36:12.400Z,1.20
2017-09-17T17:38:40.226Z,1.23
2017-09-17T17:41:07.845Z,1.60
2017-09-17T17:43:36.243Z,1.57
2017-09-17T17:46:04.500Z,2.20
2017-09-17T17:48:32.898Z,2.17
2017-09-17T17:51:00.511Z,2.60
2017-09-17T17:53:28.180Z,2.47
2017-09-17T17:55:55.848Z,2.03
2017-09-17T17:58:24.263Z,2.10
2017-09-17T18:00:51.856Z,3.07
2017-09-17T18:03:19.760Z,2.33
2017-09-17T18:05:47.400Z,2.80
2017-09-17T18:08:14.992Z,4.00
2017-09-17T18:10:43.380Z,2.80
2017-09-17T18:13:11.975Z,3.93
2017-09-17T18:15:39.638Z,3.80
2017-09-17T18:18:07.267Z,3.43
2017-09-17T18:20:35.648Z,3.97
2017-09-17T18:23:04.033Z,3.87
2017-09-17T18:25:32.480Z,4.67
2017-09-17T18:28:00.315Z,4.50
2017-09-17T18:30:27.953Z,4.47
2017-09-17T18:32:55.578Z,3.53
2017-09-17T18:35:23.173Z,3.70
2017-09-17T18:37:51.129Z,3.37
2017-09-17T18:40:19.547Z,3.37
2017-09-17T18:42:48.008Z,4.80
2017-09-17T18:45:15.673Z,4.30
2017-09-17T18:47:43.266Z,3.47
2017-09-17T18:50:10.955Z,3.80
2017-09-17T18:52:40.614Z,4.23
2017-09-17T18:55:08.589Z,5.10
2017-09-17T18:57:36.352Z,3.83
2017-09-17T19:00:03.970Z,3.90
2017-09-17T19:02:31.766Z,4.00
2017-09-17T19:04:59.514Z,4.53
2017-09-17T19:07:27.926Z,5.57
2017-09-17T19:09:55.824Z,4.93
2017-09-17T19:12:23.491Z,4.73
2017-09-17T19:14:51.115Z,4.73
2017-09-17T19:17:18.758Z,3.97
2017-09-17T19:19:46.408Z,3.53
2017-09-17T19:22:14.863Z,3.83
2017-09-17T19:24:43.312Z,3.80
2017-09-17T19:27:11.860Z,4.10
2017-09-17T19:29:39.459Z,3.60
2017-09-17T19:32:07.073Z,2.60
2017-09-17T19:34:35.168Z,3.57
2017-09-17T19:37:02.810Z,3.90
2017-09-17T19:39:30.410Z,3.00
2017-09-17T19:41:59.039Z,4.07
2017-09-17T19:44:27.491Z,2.97
2017-09-17T19:46:55.117Z,3.20
2017-09-17T19:49:22.744Z,2.93
2017-09-17T19:51:50.377Z,2.60
2017-09-17T19:54:17.999Z,3.57
2017-09-17T19:56:45.828Z,3.00
2017-09-17T19:59:13.612Z,2.83
2017-09-17T20:01:41.214Z,2.13
2017-09-17T20:04:08.877Z,3.53
2017-09-17T20:06:36.532Z,2.60
2017-09-17T20:09:05.092Z,2.70
2017-09-17T20:11:32.796Z,3.63
2017-09-17T20:14:00.392Z,2.60
2017-09-17T20:16:28.004Z,3.57
2017-09-17T20:18:55.836Z,2.93
2017-09-17T20:21:24.347Z,3.00
2017-09-17T20:23:51.944Z,3.27
2017-09-17T20:26:19.733Z,3.43
2017-09-17T20:28:47.362Z,3.13
2017-09-17T20:31:14.958Z,3.83
2017-09-17T20:33:43.166Z,3.37
2017-09-17T20:36:10.793Z,4.30
2017-09-17T20:38:39.257Z,3.70
2017-09-17T20:41:07.642Z,4.03
2017-09-17T20:43:36.769Z,3.77
2017-09-17T20:46:04.456Z,3.37
2017-09-17T20:48:32.050Z,4.03
2017-09-17T20:51:00.434Z,3.50
2017-09-17T20:53:28.806Z,4.33
2017-09-17T20:55:57.421Z,3.90
2017-09-17T20:58:25.060Z,3.60
2017-09-17T21:00:53.426Z,2.60
2017-09-17T21:03:21.826Z,3.67
2017-09-17T21:05:49.414Z,3.33
2017-09-17T21:08:17.323Z,4.40
2017-09-17T21:10:45.729Z,3.80
2017-09-17T21:13:13.312Z,3.67
2017-09-17T21:15:41.278Z,3.53
2017-09-17T21:18:08.927Z,3.40
2017-09-17T21:20:37.362Z,2.77
2017-09-17T21:23:05.112Z,2.73
2017-09-17T21:25:32.749Z,2.83
2017-09-17T21:28:00.356Z,2.23
2017-09-17T21:30:28.030Z,3.60
2017-09-17T21:32:55.812Z,2.57
2017-09-17T21:35:24.188Z,1.97
2017-09-17T21:37:52.652Z,2.70
2017-09-17T21:40:21.333Z,2.23
2017-09-17T21:42:48.952Z,2.63
2017-09-17T21:45:16.812Z,1.90
2017-09-17T21:47:44.438Z,2.63
2017-09-17T21:50:12.808Z,2.03
2017-09-17T21:52:40.412Z,2.00
2017-09-17T21:55:08.110Z,1.73
2017-09-17T21:57:36.003Z,1.60
2017-09-17T22:00:04.552Z,2.00
2017-09-17T22:02:32.180Z,1.87
2017-09-17T22:05:01.661Z,2.30
2017-09-17T22:07:30.068Z,1.80
2017-09-17T22:09:57.668Z,2.13
2017-09-17T22:12:25.600Z,1.67
2017-09-17T22:14:53.182Z,1.70
2017-09-17T22:17:20.778Z,1.10
2017-09-17T22:19:49.444Z,1.83
2017-09-17T22:22:17.138Z,1.50
2017-09-17T22:24:44.743Z,1.40
2017-09-17T22:27:12.432Z,1.30
2017-09-17T22:29:40.034Z,1.03
2017-09-17T22:32:07.682Z,1.37
2017-09-17T22:34:35.362Z,1.23
2017-09-17T22:37:03.717Z,1.70
2017-09-17T22:39:32.078Z,1.10
2017-09-17T22:41:59.699Z,1.67
2017-09-17T22:44:27.552Z,1.33
2017-09-17T22:46:55.208Z,1.87
2017-09-17T22:49:22.952Z,1.40
2017-09-17T22:51:50.666Z,2.07
2017-09-17T22:54:18.282Z,1.83
2017-09-17T22:56:45.888Z,1.80
2017-09-17T22:59:13.728Z,1.10
2017-09-17T23:01:41.333Z,1.40
2017-09-17T23:04:08.963Z,1.53
2017-09-17T23:06:36.589Z,1.17
2017-09-17T23:09:04.194Z,0.87
2017-09-17T23:11:31.845Z,1.37
2017-09-17T23:13:59.446Z,1.50
2017-09-17T23:16:28.804Z,1.10
2017-09-17T23:18:56.482Z,1.50
2017-09-17T23:21:24.055Z,1.33
2017-09-17T23:23:52.171Z,1.37
2017-09-17T23:26:19.758Z,1.27
2017-09-17T23:28:47.490Z,1.00
2017-09-17T23:31:15.106Z,1.10
2017-09-17T23:33:42.726Z,1.10
2017-09-17T23:36:10.368Z,1.10
2017-09-17T23:38:38.726Z,2.20
2017-09-17T23:41:06.379Z,1.37
2017-09-17T23:43:34.018Z,1.67
2017-09-17T23:46:01.639Z,0.90
2017-09-17T23:48:29.262Z,1.17
2017-09-17T23:50:56.840Z,1.30
2017-09-17T23:53:30.928Z,1.10
2017-09-17T23:55:58.516Z,1.70
2017-09-17T23:58:26.875Z,1.07
